Messwerte Beverly

Temperatur

Temperatur
°C
1593608400 9.00 9.00 21
1593612000 10.00 10.00 19
1593615600 11.00 11.00 21
1593619200 12.00 12.00
1593622800 13.00 13.00 22
1593626400 14.00 14.00 23
1593630000 15.00 15.00 22
1593633600 16.00 16.00 22
1593637200 17.00 17.00 21
1593640800 18.00 18.00 23
1593644400 19.00 19.00 22
1593648000 20.00 20.00 21
1593651600 21.00 21.00 19
1593655200 22.00 22.00 19
1593658800 23.00 23.00 17
1593662400 0.00 0.00
1593666000 1.00 1.00 16
1593669600 2.00 2.00 17
1593673200 3.00 3.00 16
1593676800 4.00 4.00 17
1593680400 5.00 5.00 17
1593684000 6.00 6.00 17
1593687600 7.00 7.00 18
1593691200 8.00 8.00 18

Aktuellste Messwerte

Wettercharakter
Wetter: bedeckt
Temperatur
20 °C
Feuchtigkeit
96 %
Wind
5 km/hWindrichtung: West
Luftdruck
1009 hPa
Messzeit: 2. Juli 2020, 8.00Datenquelle: METAR

Weitere Messstationen in der Nähe

Messstation Temperatur Entfernung
Lawrence 18 °C 22 km
Boston 20 °C 25 km
Bedford 21 °C 33 km
East Milton - 44 km
Norwood 22 °C 48 km
Nashua 21 °C 54 km
Portsmouth 18 °C 56 km

Wind

Windrichtung Böen Mittelwind
° km/h km/h
1593608400 9.00 8.00 - 9.00 100° 5
1593612000 10.00 9.00 - 10.00 130° 5
1593615600 11.00 10.00 - 11.00 20° 5
1593619200 12.00 11.00 - 12.00
1593622800 13.00 12.00 - 13.00 70° 5
1593626400 14.00 13.00 - 14.00 120° 10
1593630000 15.00 14.00 - 15.00 120° 15
1593633600 16.00 15.00 - 16.00 100° 20
1593637200 17.00 16.00 - 17.00 130° 15
1593640800 18.00 17.00 - 18.00 130° 5
1593644400 19.00 18.00 - 19.00 40° 5
1593648000 20.00 19.00 - 20.00 150° 5
1593651600 21.00 20.00 - 21.00 0
1593655200 22.00 21.00 - 22.00 0
1593658800 23.00 22.00 - 23.00 0
1593662400 0.00 23.00 - 0.00
1593666000 1.00 0.00 - 1.00 0
1593669600 2.00 1.00 - 2.00 0
1593673200 3.00 2.00 - 3.00 120° 0
1593676800 4.00 3.00 - 4.00 0
1593680400 5.00 4.00 - 5.00 0
1593684000 6.00 5.00 - 6.00 0
1593687600 7.00 6.00 - 7.00 260° 5
1593691200 8.00 7.00 - 8.00 260° 5

Ihre Wetterstation

Fehlt Ihre Wetterstation auf unserem Portal?

Schreiben Sie an network@meteonews.ch

Klima

Wann ist es am wärmsten? Wann regnet es am wenigsten? Unsere Klimadaten geben Auskunft.